sensor_id;sensor_type;location;lat;lon;timestamp;P1;durP1;ratioP1;P2;durP2;ratioP2
51828;SDS011;37881;48.024;8.774;2024-01-16T00:00:29;6.78;;;2.72;;
51828;SDS011;37881;48.024;8.774;2024-01-16T00:02:56;7.10;;;2.83;;
51828;SDS011;37881;48.024;8.774;2024-01-16T00:05:23;6.95;;;3.05;;
51828;SDS011;37881;48.024;8.774;2024-01-16T00:07:50;7.22;;;3.20;;
51828;SDS011;37881;48.024;8.774;2024-01-16T00:10:16;6.22;;;2.90;;
51828;SDS011;37881;48.024;8.774;2024-01-16T00:12:43;7.75;;;3.22;;
51828;SDS011;37881;48.024;8.774;2024-01-16T00:15:10;7.15;;;3.15;;
51828;SDS011;37881;48.024;8.774;2024-01-16T00:17:37;6.57;;;3.05;;
51828;SDS011;37881;48.024;8.774;2024-01-16T00:20:04;8.40;;;4.00;;
51828;SDS011;37881;48.024;8.774;2024-01-16T00:22:31;8.05;;;3.28;;
51828;SDS011;37881;48.024;8.774;2024-01-16T00:24:58;12.48;;;3.40;;
51828;SDS011;37881;48.024;8.774;2024-01-16T00:27:25;8.52;;;3.60;;
51828;SDS011;37881;48.024;8.774;2024-01-16T00:29:52;7.88;;;3.22;;
51828;SDS011;37881;48.024;8.774;2024-01-16T00:32:19;7.95;;;3.58;;
51828;SDS011;37881;48.024;8.774;2024-01-16T00:34:46;9.32;;;3.30;;
51828;SDS011;37881;48.024;8.774;2024-01-16T00:37:13;7.63;;;3.05;;
51828;SDS011;37881;48.024;8.774;2024-01-16T00:39:40;7.50;;;3.20;;
51828;SDS011;37881;48.024;8.774;2024-01-16T00:42:06;7.63;;;3.70;;
51828;SDS011;37881;48.024;8.774;2024-01-16T00:44:34;9.65;;;3.55;;
51828;SDS011;37881;48.024;8.774;2024-01-16T00:47:01;9.43;;;3.85;;
51828;SDS011;37881;48.024;8.774;2024-01-16T00:49:28;7.45;;;3.30;;
51828;SDS011;37881;48.024;8.774;2024-01-16T00:51:55;9.00;;;3.72;;
51828;SDS011;37881;48.024;8.774;2024-01-16T00:54:22;9.10;;;3.33;;
51828;SDS011;37881;48.024;8.774;2024-01-16T00:56:49;8.20;;;3.60;;
51828;SDS011;37881;48.024;8.774;2024-01-16T00:59:16;7.38;;;3.13;;
51828;SDS011;37881;48.024;8.774;2024-01-16T01:01:43;7.55;;;3.22;;
51828;SDS011;37881;48.024;8.774;2024-01-16T01:04:10;6.88;;;3.10;;
51828;SDS011;37881;48.024;8.774;2024-01-16T01:06:37;6.55;;;3.30;;
51828;SDS011;37881;48.024;8.774;2024-01-16T01:09:03;8.10;;;3.30;;
51828;SDS011;37881;48.024;8.774;2024-01-16T01:11:30;8.55;;;3.55;;
51828;SDS011;37881;48.024;8.774;2024-01-16T01:13:57;6.35;;;2.80;;
51828;SDS011;37881;48.024;8.774;2024-01-16T01:16:23;9.63;;;3.03;;
51828;SDS011;37881;48.024;8.774;2024-01-16T01:18:50;6.80;;;2.95;;
51828;SDS011;37881;48.024;8.774;2024-01-16T01:21:17;9.07;;;3.05;;
51828;SDS011;37881;48.024;8.774;2024-01-16T01:23:44;7.03;;;2.85;;
51828;SDS011;37881;48.024;8.774;2024-01-16T01:26:11;8.07;;;3.17;;
51828;SDS011;37881;48.024;8.774;2024-01-16T01:28:40;6.53;;;2.83;;
51828;SDS011;37881;48.024;8.774;2024-01-16T01:31:08;11.30;;;4.22;;
51828;SDS011;37881;48.024;8.774;2024-01-16T01:33:36;10.88;;;4.03;;
51828;SDS011;37881;48.024;8.774;2024-01-16T01:36:03;8.70;;;3.50;;
51828;SDS011;37881;48.024;8.774;2024-01-16T01:38:30;7.93;;;3.40;;
51828;SDS011;37881;48.024;8.774;2024-01-16T01:40:57;8.30;;;3.25;;
51828;SDS011;37881;48.024;8.774;2024-01-16T01:43:24;6.57;;;3.00;;
51828;SDS011;37881;48.024;8.774;2024-01-16T01:48:30;6.95;;;3.30;;
51828;SDS011;37881;48.024;8.774;2024-01-16T01:50:59;6.72;;;2.60;;
51828;SDS011;37881;48.024;8.774;2024-01-16T01:53:27;8.57;;;2.80;;
51828;SDS011;37881;48.024;8.774;2024-01-16T01:55:56;8.57;;;3.17;;
51828;SDS011;37881;48.024;8.774;2024-01-16T01:58:23;7.78;;;3.00;;
51828;SDS011;37881;48.024;8.774;2024-01-16T02:00:50;8.50;;;3.47;;
51828;SDS011;37881;48.024;8.774;2024-01-16T02:03:17;7.03;;;2.72;;
51828;SDS011;37881;48.024;8.774;2024-01-16T02:05:44;6.65;;;2.85;;
51828;SDS011;37881;48.024;8.774;2024-01-16T02:08:11;8.35;;;3.10;;
51828;SDS011;37881;48.024;8.774;2024-01-16T02:10:39;8.48;;;2.95;;
51828;SDS011;37881;48.024;8.774;2024-01-16T02:13:12;7.85;;;3.25;;
51828;SDS011;37881;48.024;8.774;2024-01-16T02:15:39;7.93;;;3.08;;
51828;SDS011;37881;48.024;8.774;2024-01-16T02:18:07;6.70;;;3.10;;
51828;SDS011;37881;48.024;8.774;2024-01-16T02:20:34;6.72;;;2.78;;
51828;SDS011;37881;48.024;8.774;2024-01-16T02:23:03;6.85;;;3.10;;
51828;SDS011;37881;48.024;8.774;2024-01-16T02:25:30;5.93;;;2.88;;
51828;SDS011;37881;48.024;8.774;2024-01-16T02:27:57;7.47;;;2.95;;
51828;SDS011;37881;48.024;8.774;2024-01-16T02:30:24;6.18;;;2.80;;
51828;SDS011;37881;48.024;8.774;2024-01-16T02:32:51;8.10;;;3.00;;
51828;SDS011;37881;48.024;8.774;2024-01-16T02:35:17;6.75;;;3.08;;
51828;SDS011;37881;48.024;8.774;2024-01-16T02:37:45;7.90;;;2.95;;
51828;SDS011;37881;48.024;8.774;2024-01-16T02:40:11;6.07;;;2.60;;
51828;SDS011;37881;48.024;8.774;2024-01-16T02:42:38;7.03;;;3.10;;
51828;SDS011;37881;48.024;8.774;2024-01-16T02:45:05;6.78;;;2.80;;
51828;SDS011;37881;48.024;8.774;2024-01-16T02:47:33;6.45;;;2.90;;
51828;SDS011;37881;48.024;8.774;2024-01-16T02:50:00;7.95;;;3.20;;
51828;SDS011;37881;48.024;8.774;2024-01-16T02:52:26;6.88;;;2.60;;
51828;SDS011;37881;48.024;8.774;2024-01-16T02:54:53;6.55;;;2.88;;
51828;SDS011;37881;48.024;8.774;2024-01-16T02:57:20;7.45;;;2.80;;
51828;SDS011;37881;48.024;8.774;2024-01-16T02:59:47;6.85;;;3.15;;
51828;SDS011;37881;48.024;8.774;2024-01-16T03:02:14;8.02;;;3.17;;
51828;SDS011;37881;48.024;8.774;2024-01-16T03:04:40;7.47;;;3.38;;
51828;SDS011;37881;48.024;8.774;2024-01-16T03:07:07;6.55;;;2.90;;
51828;SDS011;37881;48.024;8.774;2024-01-16T03:09:34;6.55;;;2.97;;
51828;SDS011;37881;48.024;8.774;2024-01-16T03:12:01;8.55;;;3.40;;
51828;SDS011;37881;48.024;8.774;2024-01-16T03:14:28;7.07;;;2.80;;
51828;SDS011;37881;48.024;8.774;2024-01-16T03:17:03;7.78;;;3.08;;
51828;SDS011;37881;48.024;8.774;2024-01-16T03:19:30;7.20;;;2.70;;
51828;SDS011;37881;48.024;8.774;2024-01-16T03:21:57;6.25;;;2.65;;
51828;SDS011;37881;48.024;8.774;2024-01-16T03:24:23;7.18;;;3.00;;
51828;SDS011;37881;48.024;8.774;2024-01-16T03:26:50;6.85;;;3.50;;
51828;SDS011;37881;48.024;8.774;2024-01-16T03:29:17;7.13;;;2.90;;
51828;SDS011;37881;48.024;8.774;2024-01-16T03:31:44;7.72;;;3.35;;
51828;SDS011;37881;48.024;8.774;2024-01-16T03:34:10;6.15;;;2.78;;
51828;SDS011;37881;48.024;8.774;2024-01-16T03:36:37;7.95;;;3.15;;
51828;SDS011;37881;48.024;8.774;2024-01-16T03:39:04;6.70;;;2.75;;
51828;SDS011;37881;48.024;8.774;2024-01-16T03:41:32;8.90;;;2.97;;
51828;SDS011;37881;48.024;8.774;2024-01-16T03:43:58;12.05;;;4.20;;
51828;SDS011;37881;48.024;8.774;2024-01-16T03:46:25;10.93;;;3.95;;
51828;SDS011;37881;48.024;8.774;2024-01-16T03:48:52;12.10;;;3.40;;
51828;SDS011;37881;48.024;8.774;2024-01-16T03:51:19;10.57;;;3.65;;
51828;SDS011;37881;48.024;8.774;2024-01-16T03:53:46;9.07;;;3.30;;
51828;SDS011;37881;48.024;8.774;2024-01-16T03:56:15;16.55;;;6.45;;
51828;SDS011;37881;48.024;8.774;2024-01-16T03:58:42;17.48;;;4.90;;
51828;SDS011;37881;48.024;8.774;2024-01-16T04:01:09;14.07;;;5.68;;
51828;SDS011;37881;48.024;8.774;2024-01-16T04:03:36;13.25;;;4.70;;
51828;SDS011;37881;48.024;8.774;2024-01-16T04:06:14;27.27;;;9.45;;
51828;SDS011;37881;48.024;8.774;2024-01-16T04:08:42;16.92;;;5.82;;
51828;SDS011;37881;48.024;8.774;2024-01-16T04:11:12;11.40;;;4.13;;
51828;SDS011;37881;48.024;8.774;2024-01-16T04:13:40;19.10;;;5.20;;
51828;SDS011;37881;48.024;8.774;2024-01-16T04:16:07;14.73;;;5.88;;
51828;SDS011;37881;48.024;8.774;2024-01-16T04:18:36;11.07;;;4.85;;
51828;SDS011;37881;48.024;8.774;2024-01-16T04:21:06;10.63;;;4.78;;
51828;SDS011;37881;48.024;8.774;2024-01-16T04:23:33;12.05;;;5.18;;
51828;SDS011;37881;48.024;8.774;2024-01-16T04:26:00;11.60;;;4.80;;
51828;SDS011;37881;48.024;8.774;2024-01-16T04:28:27;13.43;;;5.55;;
51828;SDS011;37881;48.024;8.774;2024-01-16T04:30:53;13.32;;;5.50;;
51828;SDS011;37881;48.024;8.774;2024-01-16T04:33:20;11.43;;;4.88;;
51828;SDS011;37881;48.024;8.774;2024-01-16T04:35:47;9.15;;;3.45;;
51828;SDS011;37881;48.024;8.774;2024-01-16T04:38:14;11.27;;;4.20;;
51828;SDS011;37881;48.024;8.774;2024-01-16T04:40:41;10.07;;;3.80;;
51828;SDS011;37881;48.024;8.774;2024-01-16T04:43:08;9.75;;;3.92;;
51828;SDS011;37881;48.024;8.774;2024-01-16T04:45:34;9.95;;;3.63;;
51828;SDS011;37881;48.024;8.774;2024-01-16T04:48:01;10.60;;;4.00;;
51828;SDS011;37881;48.024;8.774;2024-01-16T04:50:28;9.95;;;4.07;;
51828;SDS011;37881;48.024;8.774;2024-01-16T04:52:58;10.23;;;3.72;;
51828;SDS011;37881;48.024;8.774;2024-01-16T04:55:29;10.32;;;3.97;;
51828;SDS011;37881;48.024;8.774;2024-01-16T04:57:56;9.18;;;4.00;;
51828;SDS011;37881;48.024;8.774;2024-01-16T05:00:23;11.40;;;3.90;;
51828;SDS011;37881;48.024;8.774;2024-01-16T05:02:50;10.20;;;3.83;;
51828;SDS011;37881;48.024;8.774;2024-01-16T05:05:18;7.80;;;3.40;;
51828;SDS011;37881;48.024;8.774;2024-01-16T05:07:45;8.90;;;3.25;;
51828;SDS011;37881;48.024;8.774;2024-01-16T05:10:12;9.23;;;3.70;;
51828;SDS011;37881;48.024;8.774;2024-01-16T05:12:41;7.13;;;3.40;;
51828;SDS011;37881;48.024;8.774;2024-01-16T05:15:08;11.25;;;4.30;;
51828;SDS011;37881;48.024;8.774;2024-01-16T05:17:37;10.43;;;4.20;;
51828;SDS011;37881;48.024;8.774;2024-01-16T05:20:05;12.43;;;5.57;;
51828;SDS011;37881;48.024;8.774;2024-01-16T05:22:32;13.85;;;6.35;;
51828;SDS011;37881;48.024;8.774;2024-01-16T05:24:59;15.85;;;6.60;;
51828;SDS011;37881;48.024;8.774;2024-01-16T05:27:27;14.27;;;5.57;;
51828;SDS011;37881;48.024;8.774;2024-01-16T05:29:54;12.45;;;5.10;;
51828;SDS011;37881;48.024;8.774;2024-01-16T05:32:21;12.10;;;4.80;;
51828;SDS011;37881;48.024;8.774;2024-01-16T05:34:48;14.85;;;5.03;;
51828;SDS011;37881;48.024;8.774;2024-01-16T05:37:15;11.98;;;5.63;;
51828;SDS011;37881;48.024;8.774;2024-01-16T05:39:42;12.65;;;5.32;;
51828;SDS011;37881;48.024;8.774;2024-01-16T05:42:09;13.05;;;5.50;;
51828;SDS011;37881;48.024;8.774;2024-01-16T05:44:36;13.77;;;4.80;;
51828;SDS011;37881;48.024;8.774;2024-01-16T05:47:03;11.32;;;4.85;;
51828;SDS011;37881;48.024;8.774;2024-01-16T05:49:30;12.70;;;4.60;;
51828;SDS011;37881;48.024;8.774;2024-01-16T05:51:57;9.02;;;4.47;;
51828;SDS011;37881;48.024;8.774;2024-01-16T05:54:24;10.70;;;4.80;;
51828;SDS011;37881;48.024;8.774;2024-01-16T05:56:51;12.55;;;5.10;;
51828;SDS011;37881;48.024;8.774;2024-01-16T05:59:18;11.38;;;5.13;;
51828;SDS011;37881;48.024;8.774;2024-01-16T06:01:44;13.88;;;5.25;;
51828;SDS011;37881;48.024;8.774;2024-01-16T06:04:11;13.18;;;4.80;;
51828;SDS011;37881;48.024;8.774;2024-01-16T06:06:40;33.35;;;11.25;;
51828;SDS011;37881;48.024;8.774;2024-01-16T06:09:11;16.98;;;5.45;;
51828;SDS011;37881;48.024;8.774;2024-01-16T06:11:40;11.43;;;5.43;;
51828;SDS011;37881;48.024;8.774;2024-01-16T06:14:07;9.73;;;4.53;;
51828;SDS011;37881;48.024;8.774;2024-01-16T06:16:35;10.65;;;4.60;;
51828;SDS011;37881;48.024;8.774;2024-01-16T06:19:02;11.70;;;5.13;;
51828;SDS011;37881;48.024;8.774;2024-01-16T06:21:29;13.82;;;4.97;;
51828;SDS011;37881;48.024;8.774;2024-01-16T06:23:56;12.48;;;4.97;;
51828;SDS011;37881;48.024;8.774;2024-01-16T06:26:23;18.38;;;6.57;;
51828;SDS011;37881;48.024;8.774;2024-01-16T06:28:50;21.40;;;7.60;;
51828;SDS011;37881;48.024;8.774;2024-01-16T06:31:16;18.05;;;7.35;;
51828;SDS011;37881;48.024;8.774;2024-01-16T06:33:44;18.92;;;6.63;;
51828;SDS011;37881;48.024;8.774;2024-01-16T06:36:11;18.08;;;6.72;;
51828;SDS011;37881;48.024;8.774;2024-01-16T06:38:39;19.65;;;7.55;;
51828;SDS011;37881;48.024;8.774;2024-01-16T06:41:06;18.13;;;6.05;;
51828;SDS011;37881;48.024;8.774;2024-01-16T06:43:33;15.82;;;5.70;;
51828;SDS011;37881;48.024;8.774;2024-01-16T06:46:00;12.15;;;4.78;;
51828;SDS011;37881;48.024;8.774;2024-01-16T06:48:27;11.77;;;5.30;;
51828;SDS011;37881;48.024;8.774;2024-01-16T06:50:54;15.82;;;6.00;;
51828;SDS011;37881;48.024;8.774;2024-01-16T06:53:21;16.60;;;6.43;;
51828;SDS011;37881;48.024;8.774;2024-01-16T06:55:48;14.60;;;5.70;;
51828;SDS011;37881;48.024;8.774;2024-01-16T06:58:15;9.05;;;4.20;;
51828;SDS011;37881;48.024;8.774;2024-01-16T07:00:42;13.90;;;5.50;;
51828;SDS011;37881;48.024;8.774;2024-01-16T07:03:09;12.57;;;4.55;;
51828;SDS011;37881;48.024;8.774;2024-01-16T07:05:36;16.17;;;7.18;;
51828;SDS011;37881;48.024;8.774;2024-01-16T07:08:03;15.50;;;7.05;;
51828;SDS011;37881;48.024;8.774;2024-01-16T07:10:30;18.88;;;6.90;;
51828;SDS011;37881;48.024;8.774;2024-01-16T07:12:57;20.30;;;7.85;;
51828;SDS011;37881;48.024;8.774;2024-01-16T07:15:24;20.90;;;8.00;;
51828;SDS011;37881;48.024;8.774;2024-01-16T07:17:51;18.88;;;6.50;;
51828;SDS011;37881;48.024;8.774;2024-01-16T07:20:18;18.13;;;7.28;;
51828;SDS011;37881;48.024;8.774;2024-01-16T07:22:45;15.05;;;5.82;;
51828;SDS011;37881;48.024;8.774;2024-01-16T07:25:12;15.55;;;6.05;;
51828;SDS011;37881;48.024;8.774;2024-01-16T07:27:39;13.35;;;5.72;;
51828;SDS011;37881;48.024;8.774;2024-01-16T07:30:06;17.83;;;6.47;;
51828;SDS011;37881;48.024;8.774;2024-01-16T07:32:34;17.95;;;7.05;;
51828;SDS011;37881;48.024;8.774;2024-01-16T07:35:01;18.00;;;7.05;;
51828;SDS011;37881;48.024;8.774;2024-01-16T07:37:29;21.52;;;8.10;;
51828;SDS011;37881;48.024;8.774;2024-01-16T07:39:56;17.50;;;7.35;;
51828;SDS011;37881;48.024;8.774;2024-01-16T07:42:23;21.13;;;8.45;;
51828;SDS011;37881;48.024;8.774;2024-01-16T07:44:50;18.33;;;6.90;;
51828;SDS011;37881;48.024;8.774;2024-01-16T07:47:17;14.43;;;6.47;;
51828;SDS011;37881;48.024;8.774;2024-01-16T07:49:44;16.38;;;6.47;;
51828;SDS011;37881;48.024;8.774;2024-01-16T07:52:11;16.70;;;6.43;;
51828;SDS011;37881;48.024;8.774;2024-01-16T07:54:38;16.77;;;6.60;;
51828;SDS011;37881;48.024;8.774;2024-01-16T07:57:05;16.95;;;6.75;;
51828;SDS011;37881;48.024;8.774;2024-01-16T07:59:32;17.65;;;7.20;;
51828;SDS011;37881;48.024;8.774;2024-01-16T08:01:59;19.98;;;7.50;;
51828;SDS011;37881;48.024;8.774;2024-01-16T08:04:26;21.08;;;7.55;;
51828;SDS011;37881;48.024;8.774;2024-01-16T08:06:53;20.08;;;7.70;;
51828;SDS011;37881;48.024;8.774;2024-01-16T08:09:21;21.83;;;9.23;;
51828;SDS011;37881;48.024;8.774;2024-01-16T08:11:48;25.38;;;9.73;;
51828;SDS011;37881;48.024;8.774;2024-01-16T08:14:15;23.42;;;9.55;;
51828;SDS011;37881;48.024;8.774;2024-01-16T08:16:42;28.60;;;12.05;;
51828;SDS011;37881;48.024;8.774;2024-01-16T08:19:08;29.17;;;12.73;;
51828;SDS011;37881;48.024;8.774;2024-01-16T08:21:36;28.13;;;12.35;;
51828;SDS011;37881;48.024;8.774;2024-01-16T08:24:03;26.98;;;13.02;;
51828;SDS011;37881;48.024;8.774;2024-01-16T08:26:29;27.17;;;13.50;;
51828;SDS011;37881;48.024;8.774;2024-01-16T08:28:56;27.60;;;12.27;;
51828;SDS011;37881;48.024;8.774;2024-01-16T08:31:23;23.67;;;13.32;;
51828;SDS011;37881;48.024;8.774;2024-01-16T08:33:50;23.27;;;11.75;;
51828;SDS011;37881;48.024;8.774;2024-01-16T08:36:19;21.95;;;11.95;;
51828;SDS011;37881;48.024;8.774;2024-01-16T08:38:46;25.08;;;12.68;;
51828;SDS011;37881;48.024;8.774;2024-01-16T08:41:13;21.83;;;12.37;;
51828;SDS011;37881;48.024;8.774;2024-01-16T08:43:40;23.63;;;14.23;;
51828;SDS011;37881;48.024;8.774;2024-01-16T08:46:07;27.02;;;15.57;;
51828;SDS011;37881;48.024;8.774;2024-01-16T08:48:34;24.13;;;15.27;;
51828;SDS011;37881;48.024;8.774;2024-01-16T08:51:01;21.52;;;13.20;;
51828;SDS011;37881;48.024;8.774;2024-01-16T08:53:30;24.30;;;13.93;;
51828;SDS011;37881;48.024;8.774;2024-01-16T08:55:57;25.85;;;15.63;;
51828;SDS011;37881;48.024;8.774;2024-01-16T08:58:24;23.10;;;12.50;;
51828;SDS011;37881;48.024;8.774;2024-01-16T09:00:51;22.52;;;11.48;;
51828;SDS011;37881;48.024;8.774;2024-01-16T09:03:18;22.70;;;13.20;;
51828;SDS011;37881;48.024;8.774;2024-01-16T09:05:45;21.90;;;12.93;;
51828;SDS011;37881;48.024;8.774;2024-01-16T09:08:11;34.70;;;18.42;;
51828;SDS011;37881;48.024;8.774;2024-01-16T09:10:39;28.70;;;16.30;;
51828;SDS011;37881;48.024;8.774;2024-01-16T09:13:06;20.80;;;12.27;;
51828;SDS011;37881;48.024;8.774;2024-01-16T09:15:33;33.35;;;18.92;;
51828;SDS011;37881;48.024;8.774;2024-01-16T09:18:01;21.07;;;12.07;;
51828;SDS011;37881;48.024;8.774;2024-01-16T09:20:28;19.95;;;11.02;;
51828;SDS011;37881;48.024;8.774;2024-01-16T09:22:55;20.15;;;11.77;;
51828;SDS011;37881;48.024;8.774;2024-01-16T09:25:22;22.48;;;12.00;;
51828;SDS011;37881;48.024;8.774;2024-01-16T09:27:51;18.35;;;9.45;;
51828;SDS011;37881;48.024;8.774;2024-01-16T09:30:18;17.80;;;9.53;;
51828;SDS011;37881;48.024;8.774;2024-01-16T09:32:45;20.38;;;12.07;;
51828;SDS011;37881;48.024;8.774;2024-01-16T09:35:12;16.42;;;9.45;;
51828;SDS011;37881;48.024;8.774;2024-01-16T09:37:39;18.10;;;10.00;;
51828;SDS011;37881;48.024;8.774;2024-01-16T09:40:06;18.45;;;9.05;;
51828;SDS011;37881;48.024;8.774;2024-01-16T09:42:34;17.87;;;9.70;;
51828;SDS011;37881;48.024;8.774;2024-01-16T09:45:01;18.58;;;10.00;;
51828;SDS011;37881;48.024;8.774;2024-01-16T09:47:30;21.38;;;10.35;;
51828;SDS011;37881;48.024;8.774;2024-01-16T09:49:59;19.52;;;11.68;;
51828;SDS011;37881;48.024;8.774;2024-01-16T09:52:29;25.38;;;13.10;;
51828;SDS011;37881;48.024;8.774;2024-01-16T09:54:56;22.47;;;12.40;;
51828;SDS011;37881;48.024;8.774;2024-01-16T09:57:24;20.05;;;10.40;;
51828;SDS011;37881;48.024;8.774;2024-01-16T09:59:52;20.88;;;11.20;;
51828;SDS011;37881;48.024;8.774;2024-01-16T10:02:19;20.48;;;11.45;;
51828;SDS011;37881;48.024;8.774;2024-01-16T10:04:49;19.88;;;11.32;;
51828;SDS011;37881;48.024;8.774;2024-01-16T10:07:16;22.13;;;12.23;;
51828;SDS011;37881;48.024;8.774;2024-01-16T10:09:43;18.63;;;11.98;;
51828;SDS011;37881;48.024;8.774;2024-01-16T10:12:10;19.48;;;11.27;;
51828;SDS011;37881;48.024;8.774;2024-01-16T10:14:38;19.38;;;10.63;;
51828;SDS011;37881;48.024;8.774;2024-01-16T10:17:05;20.98;;;12.30;;
51828;SDS011;37881;48.024;8.774;2024-01-16T10:19:33;23.60;;;14.07;;
51828;SDS011;37881;48.024;8.774;2024-01-16T10:22:13;20.95;;;14.13;;
51828;SDS011;37881;48.024;8.774;2024-01-16T10:25:03;19.63;;;12.98;;
51828;SDS011;37881;48.024;8.774;2024-01-16T10:27:31;20.13;;;12.60;;
51828;SDS011;37881;48.024;8.774;2024-01-16T10:29:58;20.02;;;12.68;;
51828;SDS011;37881;48.024;8.774;2024-01-16T10:37:28;40.38;;;20.95;;
51828;SDS011;37881;48.024;8.774;2024-01-16T10:39:55;30.45;;;19.77;;
51828;SDS011;37881;48.024;8.774;2024-01-16T10:42:22;20.17;;;13.25;;
51828;SDS011;37881;48.024;8.774;2024-01-16T10:44:53;23.30;;;14.47;;
51828;SDS011;37881;48.024;8.774;2024-01-16T10:47:21;21.42;;;13.77;;
51828;SDS011;37881;48.024;8.774;2024-01-16T10:49:49;25.45;;;16.23;;
51828;SDS011;37881;48.024;8.774;2024-01-16T10:52:16;20.35;;;14.00;;
51828;SDS011;37881;48.024;8.774;2024-01-16T10:54:46;20.10;;;11.93;;
51828;SDS011;37881;48.024;8.774;2024-01-16T10:57:13;17.17;;;11.47;;
51828;SDS011;37881;48.024;8.774;2024-01-16T11:03:09;19.00;;;12.35;;
51828;SDS011;37881;48.024;8.774;2024-01-16T11:05:38;24.17;;;15.60;;
51828;SDS011;37881;48.024;8.774;2024-01-16T11:08:06;24.58;;;14.30;;
51828;SDS011;37881;48.024;8.774;2024-01-16T11:10:36;24.77;;;15.40;;
51828;SDS011;37881;48.024;8.774;2024-01-16T11:13:03;20.63;;;12.45;;
51828;SDS011;37881;48.024;8.774;2024-01-16T11:15:31;20.60;;;12.77;;
51828;SDS011;37881;48.024;8.774;2024-01-16T11:18:01;17.92;;;10.40;;
51828;SDS011;37881;48.024;8.774;2024-01-16T11:20:31;22.40;;;13.65;;
51828;SDS011;37881;48.024;8.774;2024-01-16T11:23:21;16.33;;;10.23;;
51828;SDS011;37881;48.024;8.774;2024-01-16T11:25:48;15.10;;;8.60;;
51828;SDS011;37881;48.024;8.774;2024-01-16T11:28:15;13.57;;;7.90;;
51828;SDS011;37881;48.024;8.774;2024-01-16T11:30:42;13.48;;;8.02;;
51828;SDS011;37881;48.024;8.774;2024-01-16T11:33:41;15.60;;;9.50;;
51828;SDS011;37881;48.024;8.774;2024-01-16T11:36:00;14.70;;;8.97;;
51828;SDS011;37881;48.024;8.774;2024-01-16T11:38:27;14.25;;;7.38;;
51828;SDS011;37881;48.024;8.774;2024-01-16T11:40:56;13.80;;;8.20;;
51828;SDS011;37881;48.024;8.774;2024-01-16T11:48:26;13.73;;;7.50;;
51828;SDS011;37881;48.024;8.774;2024-01-16T11:50:53;13.05;;;6.80;;
51828;SDS011;37881;48.024;8.774;2024-01-16T12:01:32;15.50;;;8.63;;
51828;SDS011;37881;48.024;8.774;2024-01-16T12:04:05;13.82;;;8.07;;
51828;SDS011;37881;48.024;8.774;2024-01-16T12:06:33;14.55;;;8.40;;
51828;SDS011;37881;48.024;8.774;2024-01-16T12:09:11;12.77;;;7.10;;
51828;SDS011;37881;48.024;8.774;2024-01-16T12:11:39;12.85;;;7.40;;
51828;SDS011;37881;48.024;8.774;2024-01-16T12:14:09;13.60;;;7.30;;
51828;SDS011;37881;48.024;8.774;2024-01-16T12:16:36;13.95;;;7.38;;
51828;SDS011;37881;48.024;8.774;2024-01-16T12:19:06;13.02;;;6.28;;
51828;SDS011;37881;48.024;8.774;2024-01-16T12:21:44;10.70;;;6.35;;
51828;SDS011;37881;48.024;8.774;2024-01-16T12:24:11;12.52;;;6.80;;
51828;SDS011;37881;48.024;8.774;2024-01-16T12:26:44;12.53;;;6.27;;
51828;SDS011;37881;48.024;8.774;2024-01-16T12:29:11;12.15;;;6.13;;
51828;SDS011;37881;48.024;8.774;2024-01-16T12:31:38;12.57;;;6.30;;
51828;SDS011;37881;48.024;8.774;2024-01-16T12:34:08;14.88;;;7.38;;
51828;SDS011;37881;48.024;8.774;2024-01-16T12:36:37;14.05;;;6.93;;
51828;SDS011;37881;48.024;8.774;2024-01-16T12:39:04;16.10;;;6.87;;
51828;SDS011;37881;48.024;8.774;2024-01-16T12:41:32;30.15;;;12.07;;
51828;SDS011;37881;48.024;8.774;2024-01-16T12:44:08;24.35;;;9.20;;
51828;SDS011;37881;48.024;8.774;2024-01-16T12:46:43;18.88;;;6.57;;
51828;SDS011;37881;48.024;8.774;2024-01-16T12:49:28;27.38;;;11.05;;
51828;SDS011;37881;48.024;8.774;2024-01-16T12:54:47;24.23;;;10.40;;
51828;SDS011;37881;48.024;8.774;2024-01-16T12:57:19;18.30;;;7.40;;
51828;SDS011;37881;48.024;8.774;2024-01-16T12:59:47;29.58;;;10.75;;
51828;SDS011;37881;48.024;8.774;2024-01-16T13:02:22;21.75;;;8.88;;
51828;SDS011;37881;48.024;8.774;2024-01-16T13:04:57;24.43;;;9.67;;
51828;SDS011;37881;48.024;8.774;2024-01-16T13:07:25;18.52;;;7.72;;
51828;SDS011;37881;48.024;8.774;2024-01-16T13:10:12;34.70;;;12.48;;
51828;SDS011;37881;48.024;8.774;2024-01-16T13:12:42;25.92;;;10.77;;
51828;SDS011;37881;48.024;8.774;2024-01-16T13:15:09;23.83;;;8.55;;
51828;SDS011;37881;48.024;8.774;2024-01-16T13:17:37;31.33;;;12.93;;
51828;SDS011;37881;48.024;8.774;2024-01-16T13:20:04;29.42;;;11.30;;
51828;SDS011;37881;48.024;8.774;2024-01-16T13:22:36;15.05;;;6.68;;
51828;SDS011;37881;48.024;8.774;2024-01-16T13:25:12;29.80;;;9.60;;
51828;SDS011;37881;48.024;8.774;2024-01-16T13:27:39;16.50;;;8.10;;
51828;SDS011;37881;48.024;8.774;2024-01-16T13:30:06;25.60;;;11.03;;
51828;SDS011;37881;48.024;8.774;2024-01-16T13:32:34;17.70;;;7.55;;
51828;SDS011;37881;48.024;8.774;2024-01-16T13:35:03;16.55;;;7.20;;
51828;SDS011;37881;48.024;8.774;2024-01-16T13:37:34;16.42;;;7.10;;
51828;SDS011;37881;48.024;8.774;2024-01-16T13:40:04;18.15;;;7.53;;
51828;SDS011;37881;48.024;8.774;2024-01-16T13:42:36;17.20;;;7.47;;
51828;SDS011;37881;48.024;8.774;2024-01-16T13:45:04;18.55;;;6.05;;
51828;SDS011;37881;48.024;8.774;2024-01-16T13:47:31;16.65;;;6.70;;
51828;SDS011;37881;48.024;8.774;2024-01-16T13:49:58;16.60;;;6.78;;
51828;SDS011;37881;48.024;8.774;2024-01-16T13:52:25;16.67;;;7.10;;
51828;SDS011;37881;48.024;8.774;2024-01-16T13:54:54;15.77;;;6.43;;
51828;SDS011;37881;48.024;8.774;2024-01-16T13:57:21;13.80;;;5.45;;
51828;SDS011;37881;48.024;8.774;2024-01-16T13:59:48;12.70;;;5.57;;
51828;SDS011;37881;48.024;8.774;2024-01-16T14:02:15;14.40;;;6.78;;
51828;SDS011;37881;48.024;8.774;2024-01-16T14:04:42;15.32;;;5.88;;
51828;SDS011;37881;48.024;8.774;2024-01-16T14:07:08;14.37;;;6.43;;
51828;SDS011;37881;48.024;8.774;2024-01-16T14:09:40;16.75;;;6.57;;
51828;SDS011;37881;48.024;8.774;2024-01-16T14:12:10;14.95;;;6.75;;
51828;SDS011;37881;48.024;8.774;2024-01-16T14:14:38;13.82;;;6.00;;
51828;SDS011;37881;48.024;8.774;2024-01-16T14:17:06;18.40;;;6.50;;
51828;SDS011;37881;48.024;8.774;2024-01-16T14:19:35;14.67;;;5.43;;
51828;SDS011;37881;48.024;8.774;2024-01-16T14:22:03;16.38;;;5.97;;
51828;SDS011;37881;48.024;8.774;2024-01-16T14:24:31;13.38;;;5.65;;
51828;SDS011;37881;48.024;8.774;2024-01-16T14:26:58;13.90;;;5.75;;
51828;SDS011;37881;48.024;8.774;2024-01-16T14:29:26;16.23;;;6.20;;
51828;SDS011;37881;48.024;8.774;2024-01-16T14:31:53;11.27;;;5.60;;
51828;SDS011;37881;48.024;8.774;2024-01-16T14:34:22;16.10;;;5.80;;
51828;SDS011;37881;48.024;8.774;2024-01-16T14:36:51;14.23;;;6.13;;
51828;SDS011;37881;48.024;8.774;2024-01-16T14:39:19;15.57;;;6.20;;
51828;SDS011;37881;48.024;8.774;2024-01-16T14:41:52;13.32;;;6.20;;
51828;SDS011;37881;48.024;8.774;2024-01-16T14:44:19;16.03;;;6.27;;
51828;SDS011;37881;48.024;8.774;2024-01-16T14:46:46;13.30;;;5.93;;
51828;SDS011;37881;48.024;8.774;2024-01-16T14:49:17;17.20;;;5.93;;
51828;SDS011;37881;48.024;8.774;2024-01-16T14:51:44;14.18;;;6.38;;
51828;SDS011;37881;48.024;8.774;2024-01-16T14:54:11;17.42;;;6.65;;
51828;SDS011;37881;48.024;8.774;2024-01-16T14:56:39;21.10;;;7.20;;
51828;SDS011;37881;48.024;8.774;2024-01-16T14:59:06;20.65;;;8.45;;
51828;SDS011;37881;48.024;8.774;2024-01-16T15:01:32;24.77;;;9.77;;
51828;SDS011;37881;48.024;8.774;2024-01-16T15:03:59;22.02;;;8.43;;
51828;SDS011;37881;48.024;8.774;2024-01-16T15:06:26;18.15;;;8.05;;